createdAt,value
2023-01-26T00:04:25.495Z,97.90
2023-01-26T00:09:27.194Z,97.80
2023-01-26T00:14:48.962Z,97.60
2023-01-26T00:19:50.639Z,97.50
2023-01-26T00:24:52.422Z,97.60
2023-01-26T00:29:54.109Z,97.60
2023-01-26T00:34:55.774Z,97.70
2023-01-26T00:39:57.529Z,97.80
2023-01-26T00:44:59.236Z,98.00
2023-01-26T00:50:00.909Z,97.90
2023-01-26T00:55:02.602Z,98.30
2023-01-26T01:00:06.273Z,98.30
2023-01-26T01:05:08.454Z,98.20
2023-01-26T01:10:11.038Z,98.20
2023-01-26T01:15:13.407Z,98.20
2023-01-26T01:20:15.659Z,98.30
2023-01-26T01:25:17.413Z,98.40
2023-01-26T01:30:19.181Z,98.40
2023-01-26T01:35:20.868Z,98.40
2023-01-26T01:40:22.557Z,98.80
2023-01-26T01:45:38.035Z,98.50
2023-01-26T01:50:40.072Z,98.70
2023-01-26T01:55:42.645Z,98.70
2023-01-26T02:00:44.462Z,98.80
2023-01-26T02:05:57.277Z,98.80
2023-01-26T02:11:06.404Z,99.00
2023-01-26T02:16:08.223Z,99.20
2023-01-26T02:21:14.016Z,98.90
2023-01-26T02:26:18.543Z,99.10
2023-01-26T02:31:22.837Z,99.20
2023-01-26T02:36:30.620Z,99.10
2023-01-26T02:41:50.795Z,99.20
2023-01-26T02:46:53.773Z,99.20
2023-01-26T02:51:55.404Z,99.20
2023-01-26T02:56:57.350Z,99.00
2023-01-26T03:01:59.296Z,99.10
2023-01-26T03:07:00.997Z,99.00
2023-01-26T03:12:03.690Z,99.20
2023-01-26T03:17:05.379Z,99.30
2023-01-26T03:22:28.930Z,99.30
2023-01-26T03:27:38.890Z,99.20
2023-01-26T03:32:40.906Z,99.20
2023-01-26T03:37:43.761Z,99.40
2023-01-26T03:43:04.509Z,99.20
2023-01-26T03:48:30.091Z,99.20
2023-01-26T03:53:50.577Z,99.20
2023-01-26T03:58:54.336Z,99.10
2023-01-26T04:04:15.664Z,99.30
2023-01-26T04:09:17.651Z,99.10
2023-01-26T04:14:49.524Z,99.20
2023-01-26T04:20:10.905Z,99.10
2023-01-26T04:25:15.483Z,99.10
2023-01-26T04:30:18.328Z,99.10
2023-01-26T04:35:20.135Z,98.90
2023-01-26T04:40:22.006Z,99.10
2023-01-26T04:45:23.640Z,99.10
2023-01-26T04:50:26.288Z,99.20
2023-01-26T04:55:27.958Z,99.10
2023-01-26T05:00:29.648Z,99.00
2023-01-26T05:05:35.158Z,98.80
2023-01-26T05:10:36.827Z,98.90
2023-01-26T05:15:38.840Z,98.80
2023-01-26T05:20:40.502Z,98.90
2023-01-26T05:25:42.784Z,99.10
2023-01-26T05:30:44.531Z,98.90
2023-01-26T05:35:46.266Z,98.90
2023-01-26T05:40:48.025Z,98.80
2023-01-26T05:45:49.754Z,99.00
2023-01-26T05:50:51.456Z,98.80
2023-01-26T05:55:53.123Z,99.10
2023-01-26T06:00:54.783Z,99.00
2023-01-26T06:05:56.516Z,98.70
2023-01-26T06:11:01.504Z,98.80
2023-01-26T06:16:03.364Z,98.70
2023-01-26T06:21:05.197Z,98.80
2023-01-26T06:26:08.798Z,99.10
2023-01-26T06:31:11.944Z,99.10
2023-01-26T06:36:15.496Z,98.70
2023-01-26T06:41:17.764Z,99.00
2023-01-26T06:46:19.707Z,98.70
2023-01-26T06:51:21.374Z,98.80
2023-01-26T06:56:23.860Z,98.90
2023-01-26T07:01:26.909Z,98.90
2023-01-26T07:06:28.994Z,98.90
2023-01-26T07:11:32.376Z,99.00
2023-01-26T07:16:34.195Z,99.00
2023-01-26T07:21:36.089Z,98.80
2023-01-26T07:26:37.850Z,98.70
2023-01-26T07:31:41.271Z,98.70
2023-01-26T07:36:43.210Z,98.70
2023-01-26T07:41:44.859Z,99.00
2023-01-26T07:46:46.575Z,99.00
2023-01-26T07:51:48.308Z,99.10
2023-01-26T07:56:54.537Z,99.10
2023-01-26T08:01:56.249Z,99.00
2023-01-26T08:06:57.930Z,99.20
2023-01-26T08:11:59.888Z,99.00
2023-01-26T08:17:01.736Z,99.00
2023-01-26T08:22:03.430Z,98.90
2023-01-26T08:27:05.085Z,99.10
2023-01-26T08:32:08.249Z,99.00
2023-01-26T08:37:10.029Z,99.20
2023-01-26T08:42:11.683Z,99.00
2023-01-26T08:47:13.369Z,98.90
2023-01-26T08:52:15.113Z,99.00
2023-01-26T08:57:16.808Z,99.00
2023-01-26T09:02:18.610Z,98.90
2023-01-26T09:07:20.341Z,99.00
2023-01-26T09:12:22.111Z,98.80
2023-01-26T09:17:23.828Z,98.90
2023-01-26T09:22:25.491Z,98.80
2023-01-26T09:27:27.192Z,98.80
2023-01-26T09:32:29.918Z,99.10
2023-01-26T09:37:31.591Z,99.20
2023-01-26T09:42:45.388Z,98.90
2023-01-26T09:47:58.747Z,98.90
2023-01-26T09:53:20.996Z,99.10
2023-01-26T09:58:37.467Z,99.10
2023-01-26T10:03:45.133Z,98.80
2023-01-26T10:08:47.752Z,98.90
2023-01-26T10:13:55.755Z,99.00
2023-01-26T10:19:06.505Z,98.90
2023-01-26T10:24:11.964Z,98.80
2023-01-26T10:29:18.144Z,98.70
2023-01-26T10:34:26.154Z,98.70
2023-01-26T10:39:27.822Z,98.50
2023-01-26T10:44:36.478Z,98.80
2023-01-26T10:49:38.142Z,98.70
2023-01-26T10:54:43.659Z,99.00
2023-01-26T11:00:01.209Z,98.60
2023-01-26T11:05:07.377Z,98.70
2023-01-26T11:10:25.810Z,97.90
2023-01-26T11:15:29.800Z,97.70
2023-01-26T11:20:58.247Z,97.90
2023-01-26T11:26:25.732Z,97.80
2023-01-26T11:31:39.718Z,97.60
2023-01-26T11:36:58.650Z,97.40
2023-01-26T11:42:20.256Z,97.40
2023-01-26T11:47:50.583Z,97.50
2023-01-26T11:53:16.011Z,97.30
2023-01-26T11:58:43.163Z,97.30
2023-01-26T12:03:47.237Z,97.50
2023-01-26T12:08:59.252Z,97.20
2023-01-26T12:14:20.724Z,97.60
2023-01-26T12:19:43.936Z,97.50
2023-01-26T12:25:20.153Z,97.20
2023-01-26T12:30:57.907Z,97.00
2023-01-26T12:36:19.429Z,96.90
2023-01-26T12:41:40.259Z,96.80
2023-01-26T12:46:47.722Z,97.00
2023-01-26T12:51:55.925Z,97.00
2023-01-26T12:57:00.511Z,96.90
2023-01-26T13:02:36.018Z,96.70
2023-01-26T13:07:40.213Z,96.70
2023-01-26T13:12:50.270Z,96.80
2023-01-26T13:18:00.536Z,96.10
2023-01-26T13:23:02.243Z,96.30
2023-01-26T13:28:12.320Z,96.60
2023-01-26T13:33:22.942Z,96.40
2023-01-26T13:38:35.426Z,96.20
2023-01-26T13:44:01.729Z,96.30
2023-01-26T13:49:03.413Z,96.30
2023-01-26T13:54:13.468Z,96.30
2023-01-26T13:59:20.704Z,96.20
2023-01-26T14:04:28.148Z,96.00
2023-01-26T14:09:33.753Z,96.10
2023-01-26T14:14:37.292Z,95.90
2023-01-26T14:19:42.259Z,95.90
2023-01-26T14:24:48.781Z,96.10
2023-01-26T14:29:50.501Z,96.00
2023-01-26T14:34:54.766Z,95.80
2023-01-26T14:40:15.223Z,95.80
2023-01-26T14:45:18.286Z,95.90
2023-01-26T14:50:28.101Z,95.70
2023-01-26T14:55:33.432Z,95.50
2023-01-26T15:00:36.898Z,95.90
2023-01-26T15:05:42.207Z,96.20
2023-01-26T15:11:30.265Z,96.20
2023-01-26T15:16:52.129Z,96.00
2023-01-26T15:21:53.872Z,96.20
2023-01-26T15:27:05.338Z,96.50
2023-01-26T15:32:07.044Z,96.50
2023-01-26T15:37:28.886Z,96.50
2023-01-26T15:42:31.244Z,96.50
2023-01-26T15:47:32.942Z,96.80
2023-01-26T15:52:34.659Z,96.70
2023-01-26T15:57:36.322Z,96.30
2023-01-26T16:02:38.043Z,96.40
2023-01-26T16:07:39.709Z,96.20
2023-01-26T16:12:41.424Z,96.30
2023-01-26T16:17:43.083Z,96.00
2023-01-26T16:22:44.777Z,96.20
2023-01-26T16:27:46.434Z,96.50
2023-01-26T16:32:48.816Z,96.40
2023-01-26T16:37:51.039Z,96.20
2023-01-26T16:42:54.115Z,96.10
2023-01-26T16:47:57.433Z,96.00
2023-01-26T16:52:59.534Z,95.90
2023-01-26T16:58:01.404Z,96.10
2023-01-26T17:03:03.323Z,96.30
2023-01-26T17:08:05.290Z,96.10
2023-01-26T17:13:07.452Z,96.00
2023-01-26T17:18:13.097Z,95.90
2023-01-26T17:23:14.942Z,96.20
2023-01-26T17:28:16.611Z,95.90
2023-01-26T17:33:18.337Z,96.60
2023-01-26T17:38:20.070Z,96.50
2023-01-26T17:43:22.101Z,96.40
2023-01-26T17:48:23.804Z,96.30
2023-01-26T17:53:25.569Z,96.40
2023-01-26T17:58:27.234Z,96.40
2023-01-26T18:03:28.991Z,96.30
2023-01-26T18:08:30.758Z,96.20
2023-01-26T18:13:32.907Z,96.10
2023-01-26T18:18:34.951Z,96.10
2023-01-26T18:23:36.650Z,96.00
2023-01-26T18:28:40.651Z,96.00
2023-01-26T18:33:42.783Z,95.90
2023-01-26T18:38:49.417Z,95.80
2023-01-26T18:43:53.139Z,95.80
2023-01-26T18:49:00.410Z,96.10
2023-01-26T18:54:04.201Z,96.10
2023-01-26T18:59:09.428Z,96.20
2023-01-26T19:04:11.210Z,96.50
2023-01-26T19:09:12.990Z,96.60
2023-01-26T19:14:15.386Z,96.50
2023-01-26T19:19:17.107Z,96.90
2023-01-26T19:24:18.864Z,97.00
2023-01-26T19:29:20.566Z,97.20
2023-01-26T19:34:23.092Z,97.40
2023-01-26T19:39:24.923Z,97.40
2023-01-26T19:44:26.647Z,97.70
2023-01-26T19:49:28.312Z,97.80
2023-01-26T19:54:29.971Z,97.50
2023-01-26T19:59:31.618Z,97.50
2023-01-26T20:04:33.288Z,97.50
2023-01-26T20:09:35.709Z,97.60
2023-01-26T20:14:37.490Z,97.80
2023-01-26T20:19:39.155Z,97.70
2023-01-26T20:24:41.032Z,97.60
2023-01-26T20:29:42.736Z,97.20
2023-01-26T20:34:44.888Z,97.00
2023-01-26T20:39:47.048Z,97.10
2023-01-26T20:44:48.803Z,97.10
2023-01-26T20:49:52.780Z,96.70
2023-01-26T20:54:54.469Z,96.50
2023-01-26T20:59:56.175Z,96.50
2023-01-26T21:04:58.184Z,96.40
2023-01-26T21:09:59.845Z,95.90
2023-01-26T21:15:01.505Z,96.10
2023-01-26T21:20:03.416Z,95.80
2023-01-26T21:25:05.461Z,95.30
2023-01-26T21:30:07.632Z,95.00
2023-01-26T21:35:09.647Z,94.70
2023-01-26T21:40:12.115Z,94.80
2023-01-26T21:45:32.757Z,94.80
2023-01-26T21:50:55.864Z,94.50
2023-01-26T21:55:57.681Z,94.50
2023-01-26T22:01:06.603Z,94.30
2023-01-26T22:06:08.284Z,94.40
2023-01-26T22:11:09.971Z,94.30
2023-01-26T22:16:12.143Z,94.00
2023-01-26T22:21:13.954Z,94.00
2023-01-26T22:26:21.433Z,93.90
2023-01-26T22:31:33.058Z,94.00
2023-01-26T22:36:34.898Z,93.90
2023-01-26T22:41:37.633Z,94.00
2023-01-26T22:46:39.524Z,93.70
2023-01-26T22:51:41.379Z,93.90
2023-01-26T22:56:43.037Z,93.80
2023-01-26T23:01:45.034Z,93.70
2023-01-26T23:06:46.715Z,93.60
2023-01-26T23:11:48.438Z,93.80
2023-01-26T23:16:50.166Z,93.10
2023-01-26T23:21:52.076Z,93.70
2023-01-26T23:26:53.747Z,93.90
2023-01-26T23:31:55.546Z,93.90
2023-01-26T23:36:57.312Z,93.80
2023-01-26T23:41:58.987Z,93.80
2023-01-26T23:47:00.819Z,93.80
2023-01-26T23:52:02.673Z,94.00
2023-01-26T23:57:04.546Z,94.00
